KFMH/FMH METAR and TAF weather

Enter ICAO airport designator
Station Type Date Time Source
KFMH METAR 2020/06/06 02:55 UTC NOAA

KFMH 060255Z 24013KT 5SM -DZ BKN006 BKN038 OVC110 17/17 A2990


Station Type Date Time Source
KFMH Decoded METAR 2020/06/06 02:55 UTC NOAA

Otis Air National Guard Base, MA, United States (KFMH) 41-39N 070-31W
Jun 05, 2020 - 10:55 PM EDT / 2020.06.06 0255 UTC
Wind: from the WSW (240 degrees) at 15 MPH (13 KT):0
Visibility: 5 mile(s):0
Sky conditions: overcast
Weather: light drizzle
Temperature: 62 F (17 C)
Dew Point: 62 F (17 C)
Relative Humidity: 100%
Pressure (altimeter): 29.9 in. Hg (1012 hPa)
ob: KFMH 060255Z 24013KT 5SM -DZ BKN006 BKN038 OVC110 17/17 A2990
cycle: 3

Station Type Date Time Source
KFMH TAF 2020/06/05 18:36 UTC NOAA

TAF KFMH 051735Z 0518/0618 22010KT P6SM VCSH SCT015 BKN080
FM052200 22010KT P6SM VCSH OVC025
FM060100 23010KT 5SM BR VCSH OVC010
FM060500 22009KT 3SM -SHRA BR OVC010
FM060600 22009KT 1SM -SHRA BR OVC003
FM061000 21010G17KT 1SM -SHRA BR OVC003
FM061300 22010KT 3SM BR VCSH OVC003
FM061600 22010KT P6SM OVC015

Example: see airport list